sensor_id;sensor_type;location;lat;lon;timestamp;P1;durP1;ratioP1;P2;durP2;ratioP2
24407;SDS011;12542;50.924;4.516;2023-08-07T00:00:46;10.35;;;2.47;;
24407;SDS011;12542;50.924;4.516;2023-08-07T00:03:12;8.98;;;2.20;;
24407;SDS011;12542;50.924;4.516;2023-08-07T00:05:44;7.10;;;1.73;;
24407;SDS011;12542;50.924;4.516;2023-08-07T00:08:11;10.23;;;3.08;;
24407;SDS011;12542;50.924;4.516;2023-08-07T00:10:37;8.07;;;2.00;;
24407;SDS011;12542;50.924;4.516;2023-08-07T00:13:02;5.80;;;1.80;;
24407;SDS011;12542;50.924;4.516;2023-08-07T00:15:28;10.23;;;2.47;;
24407;SDS011;12542;50.924;4.516;2023-08-07T00:17:54;11.18;;;2.00;;
24407;SDS011;12542;50.924;4.516;2023-08-07T00:20:20;8.35;;;2.53;;
24407;SDS011;12542;50.924;4.516;2023-08-07T00:22:46;11.68;;;1.85;;
24407;SDS011;12542;50.924;4.516;2023-08-07T00:25:11;5.95;;;1.83;;
24407;SDS011;12542;50.924;4.516;2023-08-07T00:27:37;7.82;;;2.28;;
24407;SDS011;12542;50.924;4.516;2023-08-07T00:30:02;9.73;;;2.40;;
24407;SDS011;12542;50.924;4.516;2023-08-07T00:32:31;7.90;;;1.70;;
24407;SDS011;12542;50.924;4.516;2023-08-07T00:34:57;10.25;;;2.22;;
24407;SDS011;12542;50.924;4.516;2023-08-07T00:37:23;9.73;;;1.58;;
24407;SDS011;12542;50.924;4.516;2023-08-07T00:39:49;8.98;;;1.83;;
24407;SDS011;12542;50.924;4.516;2023-08-07T00:42:15;9.90;;;2.70;;
24407;SDS011;12542;50.924;4.516;2023-08-07T00:44:40;7.85;;;2.42;;
24407;SDS011;12542;50.924;4.516;2023-08-07T00:47:06;6.22;;;1.92;;
24407;SDS011;12542;50.924;4.516;2023-08-07T00:49:34;8.13;;;2.20;;
24407;SDS011;12542;50.924;4.516;2023-08-07T00:52:01;5.53;;;1.65;;
24407;SDS011;12542;50.924;4.516;2023-08-07T00:54:27;9.50;;;1.80;;
24407;SDS011;12542;50.924;4.516;2023-08-07T00:56:53;7.40;;;1.60;;
24407;SDS011;12542;50.924;4.516;2023-08-07T00:59:23;7.78;;;1.65;;
24407;SDS011;12542;50.924;4.516;2023-08-07T01:01:49;6.18;;;1.83;;
24407;SDS011;12542;50.924;4.516;2023-08-07T01:04:15;5.72;;;1.70;;
24407;SDS011;12542;50.924;4.516;2023-08-07T01:06:40;11.13;;;2.38;;
24407;SDS011;12542;50.924;4.516;2023-08-07T01:09:06;6.30;;;2.08;;
24407;SDS011;12542;50.924;4.516;2023-08-07T01:11:34;8.80;;;1.52;;
24407;SDS011;12542;50.924;4.516;2023-08-07T01:14:13;6.38;;;1.65;;
24407;SDS011;12542;50.924;4.516;2023-08-07T01:17:11;4.18;;;1.70;;
24407;SDS011;12542;50.924;4.516;2023-08-07T01:19:41;8.35;;;1.90;;
24407;SDS011;12542;50.924;4.516;2023-08-07T01:22:08;4.75;;;1.50;;
24407;SDS011;12542;50.924;4.516;2023-08-07T01:24:35;5.50;;;1.52;;
24407;SDS011;12542;50.924;4.516;2023-08-07T01:29:57;7.32;;;2.38;;
24407;SDS011;12542;50.924;4.516;2023-08-07T01:32:47;4.68;;;1.42;;
24407;SDS011;12542;50.924;4.516;2023-08-07T01:35:26;8.10;;;1.52;;
24407;SDS011;12542;50.924;4.516;2023-08-07T01:37:54;7.40;;;2.00;;
24407;SDS011;12542;50.924;4.516;2023-08-07T01:40:22;4.68;;;1.65;;
24407;SDS011;12542;50.924;4.516;2023-08-07T01:42:48;7.22;;;1.70;;
24407;SDS011;12542;50.924;4.516;2023-08-07T01:45:21;5.90;;;2.00;;
24407;SDS011;12542;50.924;4.516;2023-08-07T01:47:48;8.30;;;2.08;;
24407;SDS011;12542;50.924;4.516;2023-08-07T01:50:14;12.48;;;1.98;;
24407;SDS011;12542;50.924;4.516;2023-08-07T01:52:39;6.80;;;1.65;;
24407;SDS011;12542;50.924;4.516;2023-08-07T01:55:05;7.28;;;1.60;;
24407;SDS011;12542;50.924;4.516;2023-08-07T01:57:31;11.43;;;1.65;;
24407;SDS011;12542;50.924;4.516;2023-08-07T01:59:56;6.25;;;2.28;;
24407;SDS011;12542;50.924;4.516;2023-08-07T02:02:22;6.43;;;2.05;;
24407;SDS011;12542;50.924;4.516;2023-08-07T02:04:48;10.48;;;1.85;;
24407;SDS011;12542;50.924;4.516;2023-08-07T02:07:14;6.07;;;1.50;;
24407;SDS011;12542;50.924;4.516;2023-08-07T02:09:39;5.53;;;1.70;;
24407;SDS011;12542;50.924;4.516;2023-08-07T02:12:05;4.30;;;1.38;;
24407;SDS011;12542;50.924;4.516;2023-08-07T02:14:31;9.30;;;1.90;;
24407;SDS011;12542;50.924;4.516;2023-08-07T02:16:57;8.40;;;1.70;;
24407;SDS011;12542;50.924;4.516;2023-08-07T02:19:22;5.05;;;1.60;;
24407;SDS011;12542;50.924;4.516;2023-08-07T02:21:48;7.75;;;1.55;;
24407;SDS011;12542;50.924;4.516;2023-08-07T02:24:14;5.57;;;1.42;;
24407;SDS011;12542;50.924;4.516;2023-08-07T02:26:39;5.25;;;1.30;;
24407;SDS011;12542;50.924;4.516;2023-08-07T02:29:05;5.80;;;1.45;;
24407;SDS011;12542;50.924;4.516;2023-08-07T02:31:34;4.35;;;1.58;;
24407;SDS011;12542;50.924;4.516;2023-08-07T02:33:59;4.85;;;1.23;;
24407;SDS011;12542;50.924;4.516;2023-08-07T02:36:25;8.50;;;1.83;;
24407;SDS011;12542;50.924;4.516;2023-08-07T02:38:51;12.25;;;1.95;;
24407;SDS011;12542;50.924;4.516;2023-08-07T02:41:19;4.15;;;1.38;;
24407;SDS011;12542;50.924;4.516;2023-08-07T02:43:44;6.25;;;1.38;;
24407;SDS011;12542;50.924;4.516;2023-08-07T02:46:10;4.00;;;1.77;;
24407;SDS011;12542;50.924;4.516;2023-08-07T02:48:36;5.63;;;2.03;;
24407;SDS011;12542;50.924;4.516;2023-08-07T02:51:01;13.18;;;2.78;;
24407;SDS011;12542;50.924;4.516;2023-08-07T02:53:27;8.07;;;1.60;;
24407;SDS011;12542;50.924;4.516;2023-08-07T02:55:53;5.00;;;1.75;;
24407;SDS011;12542;50.924;4.516;2023-08-07T02:58:18;5.80;;;1.92;;
24407;SDS011;12542;50.924;4.516;2023-08-07T03:00:44;6.35;;;1.40;;
24407;SDS011;12542;50.924;4.516;2023-08-07T03:03:10;5.18;;;1.50;;
24407;SDS011;12542;50.924;4.516;2023-08-07T03:05:35;10.77;;;1.40;;
24407;SDS011;12542;50.924;4.516;2023-08-07T03:08:01;8.95;;;1.58;;
24407;SDS011;12542;50.924;4.516;2023-08-07T03:10:27;6.60;;;1.98;;
24407;SDS011;12542;50.924;4.516;2023-08-07T03:12:52;5.60;;;1.40;;
24407;SDS011;12542;50.924;4.516;2023-08-07T03:15:18;6.03;;;1.38;;
24407;SDS011;12542;50.924;4.516;2023-08-07T03:17:43;5.63;;;1.70;;
24407;SDS011;12542;50.924;4.516;2023-08-07T03:20:09;9.45;;;1.60;;
24407;SDS011;12542;50.924;4.516;2023-08-07T03:22:35;7.07;;;1.40;;
24407;SDS011;12542;50.924;4.516;2023-08-07T03:25:01;3.35;;;1.60;;
24407;SDS011;12542;50.924;4.516;2023-08-07T03:27:27;4.68;;;1.48;;
24407;SDS011;12542;50.924;4.516;2023-08-07T03:29:53;6.25;;;1.67;;
24407;SDS011;12542;50.924;4.516;2023-08-07T03:32:19;5.80;;;2.05;;
24407;SDS011;12542;50.924;4.516;2023-08-07T03:34:47;7.85;;;1.52;;
24407;SDS011;12542;50.924;4.516;2023-08-07T03:37:12;10.35;;;1.77;;
24407;SDS011;12542;50.924;4.516;2023-08-07T03:39:38;4.95;;;1.45;;
24407;SDS011;12542;50.924;4.516;2023-08-07T03:42:03;4.10;;;1.35;;
24407;SDS011;12542;50.924;4.516;2023-08-07T03:44:29;6.82;;;2.05;;
24407;SDS011;12542;50.924;4.516;2023-08-07T03:46:55;6.20;;;1.52;;
24407;SDS011;12542;50.924;4.516;2023-08-07T03:49:22;6.30;;;1.73;;
24407;SDS011;12542;50.924;4.516;2023-08-07T03:51:48;9.75;;;1.70;;
24407;SDS011;12542;50.924;4.516;2023-08-07T03:54:14;5.85;;;1.63;;
24407;SDS011;12542;50.924;4.516;2023-08-07T03:56:40;5.35;;;2.17;;
24407;SDS011;12542;50.924;4.516;2023-08-07T03:59:06;9.00;;;1.90;;
24407;SDS011;12542;50.924;4.516;2023-08-07T04:01:31;6.97;;;2.10;;
24407;SDS011;12542;50.924;4.516;2023-08-07T04:03:57;8.50;;;1.60;;
24407;SDS011;12542;50.924;4.516;2023-08-07T04:06:23;7.30;;;2.08;;
24407;SDS011;12542;50.924;4.516;2023-08-07T04:08:48;6.35;;;1.48;;
24407;SDS011;12542;50.924;4.516;2023-08-07T04:11:14;4.82;;;1.63;;
24407;SDS011;12542;50.924;4.516;2023-08-07T04:13:40;5.47;;;1.58;;
24407;SDS011;12542;50.924;4.516;2023-08-07T04:16:05;7.20;;;2.13;;
24407;SDS011;12542;50.924;4.516;2023-08-07T04:18:32;10.73;;;2.85;;
24407;SDS011;12542;50.924;4.516;2023-08-07T04:20:58;8.45;;;1.60;;
24407;SDS011;12542;50.924;4.516;2023-08-07T04:23:24;8.52;;;1.90;;
24407;SDS011;12542;50.924;4.516;2023-08-07T04:25:50;6.60;;;1.75;;
24407;SDS011;12542;50.924;4.516;2023-08-07T04:28:17;6.78;;;1.63;;
24407;SDS011;12542;50.924;4.516;2023-08-07T04:30:43;7.85;;;1.67;;
24407;SDS011;12542;50.924;4.516;2023-08-07T04:33:10;10.55;;;1.80;;
24407;SDS011;12542;50.924;4.516;2023-08-07T04:35:36;5.55;;;1.50;;
24407;SDS011;12542;50.924;4.516;2023-08-07T04:38:02;9.52;;;2.38;;
24407;SDS011;12542;50.924;4.516;2023-08-07T04:40:28;7.25;;;1.73;;
24407;SDS011;12542;50.924;4.516;2023-08-07T04:42:54;8.88;;;2.00;;
24407;SDS011;12542;50.924;4.516;2023-08-07T04:45:22;9.55;;;1.88;;
24407;SDS011;12542;50.924;4.516;2023-08-07T04:47:48;6.97;;;2.10;;
24407;SDS011;12542;50.924;4.516;2023-08-07T04:50:14;9.00;;;1.88;;
24407;SDS011;12542;50.924;4.516;2023-08-07T04:52:39;8.18;;;2.33;;
24407;SDS011;12542;50.924;4.516;2023-08-07T04:55:05;7.30;;;1.85;;
24407;SDS011;12542;50.924;4.516;2023-08-07T04:57:31;9.18;;;1.70;;
24407;SDS011;12542;50.924;4.516;2023-08-07T04:59:57;10.27;;;1.67;;
24407;SDS011;12542;50.924;4.516;2023-08-07T05:02:22;7.28;;;2.00;;
24407;SDS011;12542;50.924;4.516;2023-08-07T05:04:48;6.93;;;2.78;;
24407;SDS011;12542;50.924;4.516;2023-08-07T05:07:14;7.13;;;1.73;;
24407;SDS011;12542;50.924;4.516;2023-08-07T05:09:40;6.10;;;1.98;;
24407;SDS011;12542;50.924;4.516;2023-08-07T05:12:06;4.22;;;1.80;;
24407;SDS011;12542;50.924;4.516;2023-08-07T05:14:32;5.55;;;1.77;;
24407;SDS011;12542;50.924;4.516;2023-08-07T05:16:58;8.52;;;1.80;;
24407;SDS011;12542;50.924;4.516;2023-08-07T05:19:24;7.15;;;1.70;;
24407;SDS011;12542;50.924;4.516;2023-08-07T05:21:50;9.90;;;1.65;;
24407;SDS011;12542;50.924;4.516;2023-08-07T05:24:16;5.75;;;1.73;;
24407;SDS011;12542;50.924;4.516;2023-08-07T05:26:42;5.28;;;1.77;;
24407;SDS011;12542;50.924;4.516;2023-08-07T05:29:09;6.18;;;1.70;;
24407;SDS011;12542;50.924;4.516;2023-08-07T05:31:35;3.65;;;1.55;;
24407;SDS011;12542;50.924;4.516;2023-08-07T05:34:01;6.68;;;1.45;;
24407;SDS011;12542;50.924;4.516;2023-08-07T05:36:27;4.50;;;1.35;;
24407;SDS011;12542;50.924;4.516;2023-08-07T05:38:54;4.22;;;1.52;;
24407;SDS011;12542;50.924;4.516;2023-08-07T05:41:19;2.88;;;1.25;;
24407;SDS011;12542;50.924;4.516;2023-08-07T05:43:45;6.30;;;1.55;;
24407;SDS011;12542;50.924;4.516;2023-08-07T05:46:11;2.22;;;1.02;;
24407;SDS011;12542;50.924;4.516;2023-08-07T05:48:36;7.38;;;1.50;;
24407;SDS011;12542;50.924;4.516;2023-08-07T05:51:02;4.22;;;1.15;;
24407;SDS011;12542;50.924;4.516;2023-08-07T05:53:28;3.95;;;1.48;;
24407;SDS011;12542;50.924;4.516;2023-08-07T05:55:54;3.63;;;1.58;;
24407;SDS011;12542;50.924;4.516;2023-08-07T05:58:20;6.70;;;1.38;;
24407;SDS011;12542;50.924;4.516;2023-08-07T06:00:46;3.72;;;1.48;;
24407;SDS011;12542;50.924;4.516;2023-08-07T06:03:12;6.65;;;1.35;;
24407;SDS011;12542;50.924;4.516;2023-08-07T06:05:37;7.20;;;1.80;;
24407;SDS011;12542;50.924;4.516;2023-08-07T06:08:03;6.40;;;1.52;;
24407;SDS011;12542;50.924;4.516;2023-08-07T06:10:29;6.53;;;1.23;;
24407;SDS011;12542;50.924;4.516;2023-08-07T06:12:55;6.07;;;1.45;;
24407;SDS011;12542;50.924;4.516;2023-08-07T06:15:20;3.55;;;1.10;;
24407;SDS011;12542;50.924;4.516;2023-08-07T06:17:48;3.80;;;1.38;;
24407;SDS011;12542;50.924;4.516;2023-08-07T06:20:16;4.30;;;1.30;;
24407;SDS011;12542;50.924;4.516;2023-08-07T06:22:41;2.85;;;1.35;;
24407;SDS011;12542;50.924;4.516;2023-08-07T06:25:07;5.95;;;1.30;;
24407;SDS011;12542;50.924;4.516;2023-08-07T06:27:33;5.53;;;1.40;;
24407;SDS011;12542;50.924;4.516;2023-08-07T06:29:59;7.03;;;1.77;;
24407;SDS011;12542;50.924;4.516;2023-08-07T06:32:25;8.18;;;1.50;;
24407;SDS011;12542;50.924;4.516;2023-08-07T06:34:51;8.55;;;1.70;;
24407;SDS011;12542;50.924;4.516;2023-08-07T06:37:17;5.93;;;1.40;;
24407;SDS011;12542;50.924;4.516;2023-08-07T06:39:43;6.28;;;1.27;;
24407;SDS011;12542;50.924;4.516;2023-08-07T06:42:09;3.92;;;1.35;;
24407;SDS011;12542;50.924;4.516;2023-08-07T06:44:34;7.20;;;1.73;;
24407;SDS011;12542;50.924;4.516;2023-08-07T06:47:00;5.88;;;1.30;;
24407;SDS011;12542;50.924;4.516;2023-08-07T06:49:26;5.28;;;1.35;;
24407;SDS011;12542;50.924;4.516;2023-08-07T06:51:51;4.60;;;1.13;;
24407;SDS011;12542;50.924;4.516;2023-08-07T06:54:17;6.10;;;1.60;;
24407;SDS011;12542;50.924;4.516;2023-08-07T06:56:43;8.07;;;1.60;;
24407;SDS011;12542;50.924;4.516;2023-08-07T06:59:09;3.42;;;1.40;;
24407;SDS011;12542;50.924;4.516;2023-08-07T07:01:35;3.88;;;1.75;;
24407;SDS011;12542;50.924;4.516;2023-08-07T07:04:01;6.00;;;1.65;;
24407;SDS011;12542;50.924;4.516;2023-08-07T07:06:27;4.50;;;1.27;;
24407;SDS011;12542;50.924;4.516;2023-08-07T07:08:53;3.63;;;1.25;;
24407;SDS011;12542;50.924;4.516;2023-08-07T07:11:24;9.25;;;2.60;;
24407;SDS011;12542;50.924;4.516;2023-08-07T07:13:50;6.28;;;1.30;;
24407;SDS011;12542;50.924;4.516;2023-08-07T07:16:20;4.82;;;1.40;;
24407;SDS011;12542;50.924;4.516;2023-08-07T07:18:50;4.57;;;1.70;;
24407;SDS011;12542;50.924;4.516;2023-08-07T07:21:16;5.18;;;1.55;;
24407;SDS011;12542;50.924;4.516;2023-08-07T07:23:42;8.82;;;1.10;;
24407;SDS011;12542;50.924;4.516;2023-08-07T07:26:08;3.47;;;1.45;;
24407;SDS011;12542;50.924;4.516;2023-08-07T07:28:34;5.80;;;1.58;;
24407;SDS011;12542;50.924;4.516;2023-08-07T07:30:59;5.35;;;1.48;;
24407;SDS011;12542;50.924;4.516;2023-08-07T07:33:25;4.28;;;1.25;;
24407;SDS011;12542;50.924;4.516;2023-08-07T07:35:51;5.32;;;1.55;;
24407;SDS011;12542;50.924;4.516;2023-08-07T07:38:17;6.55;;;1.52;;
24407;SDS011;12542;50.924;4.516;2023-08-07T07:40:42;7.22;;;1.77;;
24407;SDS011;12542;50.924;4.516;2023-08-07T07:43:08;4.57;;;1.20;;
24407;SDS011;12542;50.924;4.516;2023-08-07T07:45:34;5.05;;;1.25;;
24407;SDS011;12542;50.924;4.516;2023-08-07T07:48:01;4.38;;;1.52;;
24407;SDS011;12542;50.924;4.516;2023-08-07T07:50:27;4.38;;;1.30;;
24407;SDS011;12542;50.924;4.516;2023-08-07T07:52:55;3.17;;;1.08;;
24407;SDS011;12542;50.924;4.516;2023-08-07T07:55:21;5.82;;;1.30;;
24407;SDS011;12542;50.924;4.516;2023-08-07T07:57:47;6.55;;;1.35;;
24407;SDS011;12542;50.924;4.516;2023-08-07T08:00:12;5.05;;;1.55;;
24407;SDS011;12542;50.924;4.516;2023-08-07T08:02:41;4.70;;;1.92;;
24407;SDS011;12542;50.924;4.516;2023-08-07T08:05:08;4.60;;;1.20;;
24407;SDS011;12542;50.924;4.516;2023-08-07T08:07:35;8.40;;;2.22;;
24407;SDS011;12542;50.924;4.516;2023-08-07T08:10:02;4.60;;;1.30;;
24407;SDS011;12542;50.924;4.516;2023-08-07T08:12:30;3.55;;;1.20;;
24407;SDS011;12542;50.924;4.516;2023-08-07T08:14:55;5.75;;;1.17;;
24407;SDS011;12542;50.924;4.516;2023-08-07T08:17:22;6.25;;;1.48;;
24407;SDS011;12542;50.924;4.516;2023-08-07T08:19:48;6.85;;;1.77;;
24407;SDS011;12542;50.924;4.516;2023-08-07T08:22:14;6.65;;;1.20;;
24407;SDS011;12542;50.924;4.516;2023-08-07T08:24:40;6.43;;;1.67;;
24407;SDS011;12542;50.924;4.516;2023-08-07T08:27:06;4.53;;;1.70;;
24407;SDS011;12542;50.924;4.516;2023-08-07T08:29:31;5.35;;;1.35;;
24407;SDS011;12542;50.924;4.516;2023-08-07T08:31:57;5.63;;;1.95;;
24407;SDS011;12542;50.924;4.516;2023-08-07T08:34:23;3.05;;;1.17;;
24407;SDS011;12542;50.924;4.516;2023-08-07T08:36:50;7.43;;;2.15;;
24407;SDS011;12542;50.924;4.516;2023-08-07T08:39:16;4.90;;;1.33;;
24407;SDS011;12542;50.924;4.516;2023-08-07T08:41:41;6.22;;;1.88;;
24407;SDS011;12542;50.924;4.516;2023-08-07T08:44:12;5.88;;;1.25;;
24407;SDS011;12542;50.924;4.516;2023-08-07T08:46:40;4.22;;;1.70;;
24407;SDS011;12542;50.924;4.516;2023-08-07T08:49:07;6.63;;;1.77;;
24407;SDS011;12542;50.924;4.516;2023-08-07T08:51:35;5.32;;;1.27;;
24407;SDS011;12542;50.924;4.516;2023-08-07T08:54:02;6.72;;;1.35;;
24407;SDS011;12542;50.924;4.516;2023-08-07T08:56:29;5.82;;;1.90;;
24407;SDS011;12542;50.924;4.516;2023-08-07T08:58:56;3.60;;;1.50;;
24407;SDS011;12542;50.924;4.516;2023-08-07T09:01:21;4.07;;;1.55;;
24407;SDS011;12542;50.924;4.516;2023-08-07T09:03:49;2.60;;;1.33;;
24407;SDS011;12542;50.924;4.516;2023-08-07T09:06:17;3.15;;;1.45;;
24407;SDS011;12542;50.924;4.516;2023-08-07T09:08:44;5.20;;;1.30;;
24407;SDS011;12542;50.924;4.516;2023-08-07T09:11:12;6.28;;;2.13;;
24407;SDS011;12542;50.924;4.516;2023-08-07T09:13:38;2.67;;;1.10;;
24407;SDS011;12542;50.924;4.516;2023-08-07T09:16:08;5.72;;;1.50;;
24407;SDS011;12542;50.924;4.516;2023-08-07T09:18:35;6.65;;;1.05;;
24407;SDS011;12542;50.924;4.516;2023-08-07T09:21:01;3.47;;;1.23;;
24407;SDS011;12542;50.924;4.516;2023-08-07T09:23:28;2.20;;;0.98;;
24407;SDS011;12542;50.924;4.516;2023-08-07T09:26:00;3.75;;;1.33;;
24407;SDS011;12542;50.924;4.516;2023-08-07T09:28:29;4.25;;;1.40;;
24407;SDS011;12542;50.924;4.516;2023-08-07T09:30:57;3.38;;;1.30;;
24407;SDS011;12542;50.924;4.516;2023-08-07T09:33:26;7.78;;;1.60;;
24407;SDS011;12542;50.924;4.516;2023-08-07T09:35:56;6.38;;;1.67;;
24407;SDS011;12542;50.924;4.516;2023-08-07T09:38:23;3.28;;;1.10;;
24407;SDS011;12542;50.924;4.516;2023-08-07T09:40:49;4.00;;;0.95;;
24407;SDS011;12542;50.924;4.516;2023-08-07T09:43:21;3.78;;;1.17;;
24407;SDS011;12542;50.924;4.516;2023-08-07T09:45:47;1.85;;;0.95;;
24407;SDS011;12542;50.924;4.516;2023-08-07T09:48:20;2.35;;;0.80;;
24407;SDS011;12542;50.924;4.516;2023-08-07T09:50:49;5.13;;;1.02;;
24407;SDS011;12542;50.924;4.516;2023-08-07T09:53:15;2.47;;;1.00;;
24407;SDS011;12542;50.924;4.516;2023-08-07T09:55:41;2.10;;;1.13;;
24407;SDS011;12542;50.924;4.516;2023-08-07T09:58:11;2.40;;;0.98;;
24407;SDS011;12542;50.924;4.516;2023-08-07T10:00:39;3.30;;;1.30;;
24407;SDS011;12542;50.924;4.516;2023-08-07T10:03:06;5.07;;;1.35;;
24407;SDS011;12542;50.924;4.516;2023-08-07T10:05:32;6.47;;;1.40;;
24407;SDS011;12542;50.924;4.516;2023-08-07T10:07:57;3.72;;;1.05;;
24407;SDS011;12542;50.924;4.516;2023-08-07T10:10:23;6.70;;;1.00;;
24407;SDS011;12542;50.924;4.516;2023-08-07T10:12:50;2.55;;;1.17;;
24407;SDS011;12542;50.924;4.516;2023-08-07T10:15:17;2.75;;;0.95;;
24407;SDS011;12542;50.924;4.516;2023-08-07T10:17:44;3.05;;;0.90;;
24407;SDS011;12542;50.924;4.516;2023-08-07T10:20:10;5.47;;;1.30;;
24407;SDS011;12542;50.924;4.516;2023-08-07T10:22:38;4.68;;;1.45;;
24407;SDS011;12542;50.924;4.516;2023-08-07T10:25:06;4.05;;;1.48;;
24407;SDS011;12542;50.924;4.516;2023-08-07T10:27:33;2.90;;;1.27;;
24407;SDS011;12542;50.924;4.516;2023-08-07T10:30:02;2.70;;;1.55;;
24407;SDS011;12542;50.924;4.516;2023-08-07T10:32:32;2.67;;;1.10;;
24407;SDS011;12542;50.924;4.516;2023-08-07T10:34:58;2.63;;;1.00;;
24407;SDS011;12542;50.924;4.516;2023-08-07T10:37:32;2.75;;;1.38;;
24407;SDS011;12542;50.924;4.516;2023-08-07T10:40:04;3.80;;;1.10;;
24407;SDS011;12542;50.924;4.516;2023-08-07T10:45:20;3.08;;;1.10;;
24407;SDS011;12542;50.924;4.516;2023-08-07T10:53:29;2.67;;;1.10;;
24407;SDS011;12542;50.924;4.516;2023-08-07T10:55:55;2.95;;;1.20;;
24407;SDS011;12542;50.924;4.516;2023-08-07T10:58:25;2.58;;;1.30;;
24407;SDS011;12542;50.924;4.516;2023-08-07T11:03:49;3.42;;;1.20;;
24407;SDS011;12542;50.924;4.516;2023-08-07T11:06:22;2.30;;;1.00;;
24407;SDS011;12542;50.924;4.516;2023-08-07T11:09:02;1.50;;;0.93;;
24407;SDS011;12542;50.924;4.516;2023-08-07T11:11:37;2.03;;;1.25;;
24407;SDS011;12542;50.924;4.516;2023-08-07T11:14:07;4.55;;;1.30;;
24407;SDS011;12542;50.924;4.516;2023-08-07T11:16:36;4.00;;;1.08;;
24407;SDS011;12542;50.924;4.516;2023-08-07T11:19:03;3.58;;;1.42;;
24407;SDS011;12542;50.924;4.516;2023-08-07T11:21:32;3.45;;;1.05;;
24407;SDS011;12542;50.924;4.516;2023-08-07T11:23:58;2.35;;;1.10;;
24407;SDS011;12542;50.924;4.516;2023-08-07T11:26:24;4.20;;;1.10;;
24407;SDS011;12542;50.924;4.516;2023-08-07T11:28:53;3.35;;;0.90;;
24407;SDS011;12542;50.924;4.516;2023-08-07T11:31:19;4.40;;;1.30;;
24407;SDS011;12542;50.924;4.516;2023-08-07T11:33:45;2.80;;;1.40;;
24407;SDS011;12542;50.924;4.516;2023-08-07T11:36:12;2.03;;;0.90;;
24407;SDS011;12542;50.924;4.516;2023-08-07T11:38:39;4.00;;;1.27;;
24407;SDS011;12542;50.924;4.516;2023-08-07T11:41:13;3.17;;;1.08;;
24407;SDS011;12542;50.924;4.516;2023-08-07T11:43:40;1.23;;;0.82;;
24407;SDS011;12542;50.924;4.516;2023-08-07T11:46:07;2.85;;;1.25;;
24407;SDS011;12542;50.924;4.516;2023-08-07T11:48:35;1.92;;;0.85;;
24407;SDS011;12542;50.924;4.516;2023-08-07T11:51:03;1.27;;;0.68;;
24407;SDS011;12542;50.924;4.516;2023-08-07T11:53:33;2.30;;;0.90;;
24407;SDS011;12542;50.924;4.516;2023-08-07T11:56:04;4.18;;;1.60;;
24407;SDS011;12542;50.924;4.516;2023-08-07T11:58:38;3.10;;;0.85;;
24407;SDS011;12542;50.924;4.516;2023-08-07T12:01:11;2.58;;;1.08;;
24407;SDS011;12542;50.924;4.516;2023-08-07T12:03:42;3.35;;;0.85;;
24407;SDS011;12542;50.924;4.516;2023-08-07T12:06:18;1.80;;;0.90;;
24407;SDS011;12542;50.924;4.516;2023-08-07T12:08:44;2.10;;;0.85;;
24407;SDS011;12542;50.924;4.516;2023-08-07T12:11:10;2.15;;;1.20;;
24407;SDS011;12542;50.924;4.516;2023-08-07T12:13:41;3.42;;;1.15;;
24407;SDS011;12542;50.924;4.516;2023-08-07T12:16:08;5.82;;;1.60;;
24407;SDS011;12542;50.924;4.516;2023-08-07T12:18:34;3.08;;;1.02;;
24407;SDS011;12542;50.924;4.516;2023-08-07T12:21:03;3.08;;;1.30;;
24407;SDS011;12542;50.924;4.516;2023-08-07T12:23:32;3.00;;;1.23;;
24407;SDS011;12542;50.924;4.516;2023-08-07T12:25:59;5.55;;;1.30;;
24407;SDS011;12542;50.924;4.516;2023-08-07T12:28:25;1.75;;;0.82;;
24407;SDS011;12542;50.924;4.516;2023-08-07T12:30:51;2.35;;;1.00;;
24407;SDS011;12542;50.924;4.516;2023-08-07T12:33:17;5.57;;;1.55;;
24407;SDS011;12542;50.924;4.516;2023-08-07T12:35:44;2.85;;;1.35;;
24407;SDS011;12542;50.924;4.516;2023-08-07T12:38:10;5.57;;;0.98;;
24407;SDS011;12542;50.924;4.516;2023-08-07T12:40:38;3.20;;;1.40;;
24407;SDS011;12542;50.924;4.516;2023-08-07T12:43:04;1.70;;;1.13;;
24407;SDS011;12542;50.924;4.516;2023-08-07T12:45:30;1.90;;;1.00;;
24407;SDS011;12542;50.924;4.516;2023-08-07T12:47:58;4.05;;;0.90;;
24407;SDS011;12542;50.924;4.516;2023-08-07T12:50:24;2.13;;;0.93;;
24407;SDS011;12542;50.924;4.516;2023-08-07T12:52:50;1.85;;;0.90;;
24407;SDS011;12542;50.924;4.516;2023-08-07T12:55:16;3.13;;;0.93;;
24407;SDS011;12542;50.924;4.516;2023-08-07T12:57:42;2.20;;;0.90;;
24407;SDS011;12542;50.924;4.516;2023-08-07T13:00:08;1.92;;;0.90;;
24407;SDS011;12542;50.924;4.516;2023-08-07T13:02:38;2.15;;;0.68;;
24407;SDS011;12542;50.924;4.516;2023-08-07T13:05:05;2.20;;;1.10;;
24407;SDS011;12542;50.924;4.516;2023-08-07T13:07:31;2.28;;;0.90;;
24407;SDS011;12542;50.924;4.516;2023-08-07T13:09:57;2.00;;;0.60;;
24407;SDS011;12542;50.924;4.516;2023-08-07T13:12:22;1.52;;;0.90;;
24407;SDS011;12542;50.924;4.516;2023-08-07T13:14:48;1.90;;;0.77;;
24407;SDS011;12542;50.924;4.516;2023-08-07T13:17:14;2.70;;;0.68;;
24407;SDS011;12542;50.924;4.516;2023-08-07T13:19:39;2.45;;;0.88;;
24407;SDS011;12542;50.924;4.516;2023-08-07T13:22:06;1.95;;;0.65;;
24407;SDS011;12542;50.924;4.516;2023-08-07T13:24:32;2.10;;;0.73;;
24407;SDS011;12542;50.924;4.516;2023-08-07T13:27:00;0.98;;;0.52;;
24407;SDS011;12542;50.924;4.516;2023-08-07T13:29:26;1.13;;;0.60;;
24407;SDS011;12542;50.924;4.516;2023-08-07T13:31:54;0.95;;;0.70;;
24407;SDS011;12542;50.924;4.516;2023-08-07T13:34:20;1.40;;;0.50;;
24407;SDS011;12542;50.924;4.516;2023-08-07T13:36:46;1.35;;;0.50;;
24407;SDS011;12542;50.924;4.516;2023-08-07T13:39:12;1.75;;;0.60;;
24407;SDS011;12542;50.924;4.516;2023-08-07T13:41:38;2.05;;;0.68;;
24407;SDS011;12542;50.924;4.516;2023-08-07T13:44:04;1.58;;;0.60;;
24407;SDS011;12542;50.924;4.516;2023-08-07T13:46:30;1.55;;;0.52;;
24407;SDS011;12542;50.924;4.516;2023-08-07T13:48:55;1.80;;;0.40;;
24407;SDS011;12542;50.924;4.516;2023-08-07T13:51:21;2.88;;;0.85;;
24407;SDS011;12542;50.924;4.516;2023-08-07T13:53:49;2.17;;;0.50;;
24407;SDS011;12542;50.924;4.516;2023-08-07T13:56:17;1.85;;;0.60;;
24407;SDS011;12542;50.924;4.516;2023-08-07T13:58:43;3.45;;;0.60;;
24407;SDS011;12542;50.924;4.516;2023-08-07T14:01:09;1.15;;;0.40;;
24407;SDS011;12542;50.924;4.516;2023-08-07T14:03:34;5.00;;;0.63;;
24407;SDS011;12542;50.924;4.516;2023-08-07T14:06:00;1.30;;;0.60;;
24407;SDS011;12542;50.924;4.516;2023-08-07T14:08:26;2.63;;;0.50;;
24407;SDS011;12542;50.924;4.516;2023-08-07T14:10:52;1.95;;;0.68;;
24407;SDS011;12542;50.924;4.516;2023-08-07T14:13:18;2.22;;;0.50;;
24407;SDS011;12542;50.924;4.516;2023-08-07T14:15:43;2.63;;;0.65;;
24407;SDS011;12542;50.924;4.516;2023-08-07T14:18:09;1.70;;;0.80;;
24407;SDS011;12542;50.924;4.516;2023-08-07T14:20:40;0.85;;;0.40;;
24407;SDS011;12542;50.924;4.516;2023-08-07T14:23:05;2.35;;;0.63;;
24407;SDS011;12542;50.924;4.516;2023-08-07T14:25:31;1.48;;;0.52;;
24407;SDS011;12542;50.924;4.516;2023-08-07T14:27:57;0.77;;;0.40;;
24407;SDS011;12542;50.924;4.516;2023-08-07T14:30:23;3.13;;;0.50;;
24407;SDS011;12542;50.924;4.516;2023-08-07T14:32:49;2.25;;;0.40;;
24407;SDS011;12542;50.924;4.516;2023-08-07T14:35:14;1.42;;;0.55;;
24407;SDS011;12542;50.924;4.516;2023-08-07T14:37:40;3.25;;;1.00;;
24407;SDS011;12542;50.924;4.516;2023-08-07T14:40:06;0.60;;;0.40;;
24407;SDS011;12542;50.924;4.516;2023-08-07T14:42:32;3.08;;;0.60;;
24407;SDS011;12542;50.924;4.516;2023-08-07T14:44:58;3.53;;;0.95;;
24407;SDS011;12542;50.924;4.516;2023-08-07T14:47:24;2.78;;;0.70;;
24407;SDS011;12542;50.924;4.516;2023-08-07T14:49:50;1.55;;;0.63;;
24407;SDS011;12542;50.924;4.516;2023-08-07T14:52:16;2.17;;;0.43;;
24407;SDS011;12542;50.924;4.516;2023-08-07T14:54:41;1.48;;;0.50;;
24407;SDS011;12542;50.924;4.516;2023-08-07T14:57:07;2.38;;;0.65;;
24407;SDS011;12542;50.924;4.516;2023-08-07T14:59:33;2.13;;;0.65;;